Latest Weather Observations for Montague Island

IDN60901

Issued at 6:31 am EST Thursday 16 August 2018 (issued every 10 minutes, with the page automatically refreshed every 10 minutes)

About weather observations | Map of Canberra area stations | Latest observations for Canberra area | Other Formats
Station Details ID: 069017 Name: MONTAGUE ISLAND LIGHTHOUSE Lat: -36.25 Lon: 150.23 Height: 52.0 m
Data from the previous 72 hours. | See also: Recent months at Montague Island
Date/Time
EST
Temp
°C
App
Temp
°C
Dew
Point
°C
Rel
Hum
%
Delta-T
°C
Wind Press
QNH
hPa
Press
MSL
hPa
Rain since
9am
mm
Dir  Spd
km/h
Gust
km/h
Spd
kts
Gust
kts
16/06:30am 13.4 10.4 5.8 60 3.6 W 11 15 6 8 1008.0 1008.0 0.0
16/06:00am 13.7 11.7 6.3 61 3.6 W 6 9 3 5 1007.7 1007.7 0.0
16/05:30am 14.6 12.3 5.7 55 4.2 WNW 7 11 4 6 1007.5 1007.5 0.0
16/05:00am 15.0 12.3 3.5 46 5.3 NW 7 11 4 6 1007.2 1007.2 0.0
16/04:30am 14.8 11.6 3.3 46 5.2 NW 9 11 5 6 1007.0 1007.0 0.0
16/04:00am 14.8 12.2 3.3 46 5.2 NW 6 11 3 6 1006.7 1006.7 0.0
16/03:30am 14.9 10.2 3.4 46 5.2 WNW 17 20 9 11 1006.5 1006.5 0.0
16/03:00am 15.3 10.2 2.8 43 5.7 W 19 30 10 16 1006.6 1006.6 0.0
16/02:30am 15.5 10.4 3.0 43 5.7 WNW 19 26 10 14 1006.7 1006.7 0.0
16/02:00am 15.8 7.7 3.3 43 5.7 W 35 46 19 25 1006.7 1006.7 0.0
16/01:46am 16.0 7.5 3.4 43 5.8 W 37 57 20 31 1006.8 1006.8 0.0
16/01:30am 16.2 8.2 3.9 44 5.7 W 35 48 19 26 1006.8 1006.8 0.0
16/01:23am 16.3 9.6 3.4 42 5.9 W 28 48 15 26 1006.8 1006.8 0.0
16/01:00am 16.6 10.0 4.3 44 5.8 W 28 41 15 22 1006.9 1006.9 0.0
16/12:30am 17.1 9.7 4.1 42 6.1 WSW 32 48 17 26 1006.9 1006.9 0.0
16/12:00am 17.4 7.8 4.4 42 6.2 W 44 63 24 34 1006.2 1006.2 0.0
 
Date/Time
EST
Temp
°C
App
Temp
°C
Dew
Point
°C
Rel
Hum
%
Delta-T
°C
Wind Press
QNH
hPa
Press
MSL
hPa
Rain since
9am
mm
Dir  Spd
km/h
Gust
km/h
Spd
kts
Gust
kts
15/11:45pm 17.4 7.9 4.0 41 6.3 W 43 61 23 33 1006.1 1006.1 0.0
15/11:30pm 17.6 8.8 3.5 39 6.6 WSW 39 48 21 26 1006.0 1006.0 0.0
15/11:00pm 17.4 9.9 4.7 43 6.1 W 33 44 18 24 1005.8 1005.8 0.0
15/10:51pm 16.9 9.6 4.6 44 5.8 WSW 32 39 17 21 1005.7 1005.7 0.0
15/10:30pm 16.9 13.6 4.3 43 5.9 WSW 11 19 6 10 1005.9 1005.9 0.0
15/10:00pm 17.8 15.0 3.3 38 6.8 N 7 11 4 6 1005.6 1005.6 0.0
15/09:30pm 17.5 13.8 6.1 47 5.6 NNW 15 24 8 13 1005.6 1005.6 0.0
15/09:00pm 18.0 11.5 4.9 42 6.3 N 28 35 15 19 1005.4 1005.4 0.0
15/08:30pm 17.7 11.0 7.2 50 5.3 N 32 41 17 22 1005.1 1005.1 0.0
15/08:00pm 17.7 11.7 6.9 49 5.4 N 28 39 15 21 1005.0 1005.0 0.0
15/07:30pm 17.7 12.5 7.4 51 5.2 N 24 32 13 17 1005.2 1005.2 0.0
15/07:00pm 18.9 14.0 2.3 33 7.7 NW 17 26 9 14 1005.2 1005.2 0.0
15/06:30pm 18.9 12.1 3.1 35 7.4 WNW 28 50 15 27 1004.9 1004.9 0.0
15/06:07pm 19.3 11.2 3.5 35 7.5 WNW 35 57 19 31 1004.6 1004.6 0.0
15/06:00pm 19.2 10.4 3.4 35 7.5 W 39 52 21 28 1004.7 1004.7 0.0
15/05:30pm 19.9 8.4 2.3 31 8.2 WNW 52 74 28 40 1004.3 1004.3 0.0
15/05:11pm 20.0 10.3 2.8 32 8.1 WNW 43 63 23 34 1004.3 1004.3 0.0
15/05:00pm 19.9 10.0 2.7 32 8.1 W 44 57 24 31 1004.1 1004.1 0.0
15/04:54pm 19.9 9.0 3.6 34 7.7 WNW 50 65 27 35 1003.8 1003.8 0.0
15/04:30pm 20.4 6.9 2.7 31 8.3 WNW 63 85 34 46 1003.3 1003.3 0.0
15/04:03pm 20.9 9.5 2.7 30 8.6 WNW 52 74 28 40 1003.6 1003.6 0.0
15/04:00pm 21.1 9.3 2.9 30 8.6 W 54 70 29 38 1003.7 1003.7 0.0
15/03:31pm 21.6 9.2 1.3 26 9.3 W 56 76 30 41 1003.3 1003.3 0.0
15/03:30pm 21.6 9.7 2.3 28 9.1 W 54 72 29 39 1003.3 1003.3 0.0
15/03:00pm 22.6 10.0 1.6 25 9.8 W 57 76 31 41 1003.4 1003.4 0.0
15/02:30pm 22.9 8.8 1.3 24 10.0 WNW 65 96 35 52 1003.0 1003.0 0.0
15/02:05pm 23.1 11.2 -0.4 21 10.6 WNW 52 91 28 49 1002.6 1002.6 0.0
15/02:04pm 23.0 11.9 0.2 22 10.4 WNW 48 89 26 48 1003.0 1003.0 0.0
15/02:00pm 22.9 12.9 1.9 25 9.9 WNW 44 69 24 37 1003.4 1003.4 0.0
15/01:36pm 23.0 12.5 1.4 24 10.1 WNW 46 72 25 39 1003.4 1003.4 0.0
15/01:33pm 23.1 13.0 0.2 22 10.4 WNW 43 72 23 39 1003.3 1003.3 0.0
15/01:31pm 22.9 13.4 1.9 25 9.9 WNW 41 72 22 39 1003.3 1003.3 0.0
15/01:30pm 23.0 13.4 1.4 24 10.1 WNW 41 63 22 34 1003.4 1003.4 0.0
15/01:28pm 23.1 13.1 2.0 25 10.0 WNW 44 63 24 34 1003.4 1003.4 0.0
15/01:00pm 23.1 10.5 0.2 22 10.5 W 56 89 30 48 1003.5 1003.5 0.0
15/12:30pm 23.4 10.1 -0.8 20 10.9 W 59 78 32 42 1003.4 1003.4 0.0
15/12:29pm 23.4 10.5 -0.8 20 10.9 W 57 78 31 42 1003.5 1003.5 0.0
15/12:27pm 23.4 9.9 0.5 22 10.5 W 61 89 33 48 1003.8 1003.8 0.0
15/12:19pm 23.2 8.3 -1.7 19 11.0 WNW 67 95 36 51 1003.4 1003.4 0.0
15/12:18pm 23.5 9.0 -1.4 19 11.0 W 65 95 35 51 1003.2 1003.2 0.0
15/12:07pm 23.4 11.6 0.5 22 10.5 WNW 52 78 28 42 1004.0 1004.0 0.0
15/12:04pm 23.6 12.5 0.0 21 10.8 WNW 48 78 26 42 1003.8 1003.8 0.0
15/12:00pm 23.6 14.1 -0.6 20 11.0 WNW 39 57 21 31 1004.0 1004.0 0.0
15/11:54am 22.8 17.4 1.2 24 10.0 NW 19 50 10 27 1004.4 1004.4 0.0
15/11:30am 20.6 17.4 5.0 36 7.7 N 11 22 6 12 1005.3 1005.3 0.0
15/11:00am 19.0 15.4 2.8 34 7.6 N 11 20 6 11 1005.6 1005.6 0.0
15/10:30am 18.9 14.3 1.4 31 7.9 N 15 26 8 14 1006.0 1006.0 0.0
15/10:00am 18.8 13.5 -0.6 27 8.4 NNW 17 28 9 15 1006.1 1006.1 0.0
15/09:30am 18.3 13.3 3.4 37 7.0 N 19 37 10 20 1006.5 1006.5 0.0
15/09:00am 18.9 13.6 -0.5 27 8.4 WNW 17 37 9 20 1006.7 1006.7 0.0
15/08:30am 18.0 12.2 -1.3 27 8.2 NW 19 28 10 15 1006.8 1006.8 0.0
15/08:00am 18.3 8.6 0.4 30 7.9 WNW 41 57 22 31 1006.8 1006.8 0.0
15/07:30am 17.7 6.8 -1.0 28 7.9 W 46 69 25 37 1007.1 1007.1 0.0
15/07:29am 17.6 6.4 -0.6 29 7.8 W 48 69 26 37 1007.1 1007.1 0.0
15/07:00am 17.0 7.4 -1.6 28 7.8 W 39 50 21 27 1007.0 1007.0 0.0
15/06:55am 17.0 9.0 -2.6 26 8.0 W 30 48 16 26 1006.9 1006.9 0.0
15/06:36am 16.2 10.0 -2.8 27 7.7 W 20 48 11 26 1006.6 1006.6 0.0
15/06:30am 15.5 11.7 -1.1 32 6.9 W 9 17 5 9 1006.7 1006.7 0.0
15/06:00am 15.3 10.3 6.6 56 4.3 N 22 33 12 18 1006.6 1006.6 0.0
15/05:30am 15.6 9.0 4.0 46 5.4 N 28 39 15 21 1005.9 1005.9 0.0
15/05:00am 14.3 8.9 4.6 52 4.5 N 22 28 12 15 1006.6 1006.6 0.0
15/04:30am 15.5 9.8 -0.7 33 6.8 NW 19 30 10 16 1007.1 1007.1 0.0
15/04:00am 15.5 8.4 -1.1 32 6.9 W 26 35 14 19 1007.8 1007.8 0.0
15/03:48am 14.8 7.8 2.0 42 5.6 W 28 39 15 21 1007.8 1007.8 0.0
15/03:30am 12.8 9.3 5.5 61 3.4 WNW 13 19 7 10 1008.3 1008.3 0.0
15/03:00am 13.9 9.9 5.0 55 4.2 NW 15 20 8 11 1008.3 1008.3 0.0
15/02:30am 14.9 9.3 5.4 53 4.5 NNW 24 32 13 17 1008.8 1008.8 0.0
15/02:00am 15.1 8.6 4.5 49 5.0 NNW 28 35 15 19 1009.1 1009.1 0.0
15/01:30am 15.1 8.0 3.6 46 5.3 NNW 30 37 16 20 1009.5 1009.5 0.0
15/01:00am 15.2 7.9 4.6 49 5.0 NNW 32 39 17 21 1009.9 1009.9 0.0
15/12:30am 14.9 8.7 6.2 56 4.2 NNW 28 33 15 18 1010.5 1010.5 0.0
15/12:00am 14.1 9.5 6.5 60 3.7 NNW 20 28 11 15 1011.0 1011.0 0.0
 
Date/Time
EST
Temp
°C
App
Temp
°C
Dew
Point
°C
Rel
Hum
%
Delta-T
°C
Wind Press
QNH
hPa
Press
MSL
hPa
Rain since
9am
mm
Dir  Spd
km/h
Gust
km/h
Spd
kts
Gust
kts
14/11:30pm 14.5 9.5 6.6 59 3.8 NNW 22 28 12 15 1011.6 1011.6 0.0
14/11:00pm 14.8 7.9 6.6 58 4.0 NNW 32 39 17 21 1012.0 1012.0 0.0
14/10:30pm 15.0 8.5 8.3 64 3.4 NNW 32 39 17 21 1012.5 1012.5 0.0
14/10:00pm 15.0 9.2 9.4 69 2.9 NNW 30 39 16 21 1012.7 1012.7 0.0
14/09:30pm 14.7 8.3 8.6 67 3.1 NW 32 41 17 22 1013.1 1013.0 0.0
14/09:00pm 14.3 9.3 10.9 80 1.8 NW 28 35 15 19 1013.4 1013.3 0.0
14/08:30pm 14.9 11.9 12.4 85 1.4 NNW 20 28 11 15 1013.9 1013.9 0.0
14/08:00pm 15.0 11.6 12.5 85 1.4 NNW 22 28 12 15 1014.2 1014.2 0.0
14/07:30pm 15.3 12.2 13.3 88 1.1 N 22 28 12 15 1014.3 1014.3 0.0
14/07:00pm 15.9 12.7 13.2 84 1.5 NNW 22 28 12 15 1014.6 1014.6 0.0
14/06:30pm 16.1 13.1 12.5 79 2.0 N 20 26 11 14 1014.6 1014.6 0.0
14/06:00pm 16.4 13.1 11.6 73 2.6 N 20 28 11 15 1014.9 1014.9 0.0
14/05:30pm 16.6 13.7 11.1 70 3.0 N 17 24 9 13 1014.9 1014.9 0.0
14/05:00pm 16.5 12.9 10.6 68 3.1 N 20 24 11 13 1015.0 1015.0 0.0
14/04:30pm 16.7 13.4 10.8 68 3.2 NNE 19 24 10 13 1015.0 1015.0 0.0
14/04:00pm 16.6 11.6 10.9 69 3.1 NNE 28 32 15 17 1015.2 1015.2 0.0
14/03:30pm 16.9 12.9 10.3 65 3.5 NE 22 28 12 15 1015.5 1015.5 0.0
14/03:00pm 17.1 12.7 8.8 58 4.3 NNE 22 28 12 15 1015.8 1015.8 0.0
14/02:30pm 17.0 12.4 8.2 56 4.5 NNE 22 28 12 15 1015.9 1015.9 0.0
14/02:00pm 16.6 11.3 7.0 53 4.8 NNE 24 30 13 16 1016.3 1016.3 0.0
14/01:30pm 16.9 11.9 6.4 50 5.2 NNE 22 24 12 13 1016.7 1016.7 0.0
14/01:00pm 16.9 12.9 8.1 56 4.5 NNE 19 22 10 12 1017.5 1017.5 0.0
14/12:30pm 16.5 13.2 8.0 57 4.3 NNE 15 19 8 10 1018.1 1018.1 0.0
14/12:00pm 16.5 12.7 5.8 49 5.2 NNE 15 17 8 9 1018.7 1018.7 0.0
14/11:30am 16.9 13.0 3.6 41 6.2 N 13 17 7 9 1019.5 1019.5 0.0
14/11:00am 16.6 12.1 4.3 44 5.8 NNW 17 24 9 13 1020.1 1020.1 0.0
14/10:30am 16.0 12.2 5.6 50 5.0 N 15 20 8 11 1020.4 1020.4 0.0
14/10:00am 15.9 12.6 6.6 54 4.5 NNW 13 19 7 10 1020.7 1020.7 0.0
14/09:30am 15.5 13.2 5.7 52 4.7 N 7 13 4 7 1021.0 1021.0 0.0
14/09:00am 14.7 13.4 7.5 62 3.6 WNW 4 7 2 4 1021.2 1021.2 0.0
14/08:30am 13.5 11.7 8.1 70 2.7 NW 7 9 4 5 1021.2 1021.2 0.0
14/08:00am 12.7 10.4 7.6 71 2.5 NW 9 11 5 6 1021.2 1021.2 0.0
14/07:30am 12.5 10.6 7.6 72 2.4 NW 7 9 4 5 1020.9 1020.9 0.0
14/07:00am 11.8 9.4 7.1 73 2.3 NW 9 13 5 7 1020.5 1020.5 0.0
14/06:30am 12.1 9.3 6.8 70 2.5 NW 11 13 6 7 1020.2 1020.2 0.0
14/06:00am 12.4 9.9 6.7 68 2.7 NW 9 13 5 7 1020.0 1020.0 0.0
14/05:30am 12.2 9.5 7.3 72 2.4 NW 11 15 6 8 1019.8 1019.8 0.0
14/05:00am 11.9 8.9 7.8 76 2.0 NW 13 17 7 9 1019.6 1019.6 0.0
14/04:30am 12.1 9.9 8.0 76 2.0 WNW 9 11 5 6 1019.5 1019.5 0.0
14/04:00am 12.2 9.5 7.3 72 2.4 NW 11 13 6 7 1019.3 1019.3 0.0
14/03:30am 12.4 9.8 7.7 73 2.3 NW 11 13 6 7 1019.3 1019.3 0.0
14/03:00am 12.3 9.6 7.4 72 2.4 NW 11 13 6 7 1019.4 1019.4 0.0
14/02:30am 13.0 10.2 7.0 67 2.9 NW 11 15 6 8 1019.4 1019.4 0.0
14/02:00am 13.1 9.9 5.0 58 3.7 WNW 11 13 6 7 1019.5 1019.5 0.0
14/01:30am 13.3 10.0 4.5 55 4.0 WNW 11 13 6 7 1019.6 1019.6 0.0
14/01:00am 13.2 10.1 5.6 60 3.6 NW 11 17 6 9 1019.8 1019.8 0.0
14/12:30am 13.2 8.7 4.4 55 4.0 WNW 17 20 9 11 1019.5 1019.5 0.0
14/12:00am 13.3 9.6 4.7 56 4.0 WNW 13 17 7 9 1019.5 1019.5 0.0
 
Date/Time
EST
Temp
°C
App
Temp
°C
Dew
Point
°C
Rel
Hum
%
Delta-T
°C
Wind Press
QNH
hPa
Press
MSL
hPa
Rain since
9am
mm
Dir  Spd
km/h
Gust
km/h
Spd
kts
Gust
kts
13/11:30pm 13.2 10.2 4.1 54 4.1 WNW 9 15 5 8 1019.6 1019.6 0.0
13/11:00pm 13.5 10.3 4.9 56 4.0 WNW 11 15 6 8 1019.8 1019.8 0.0
13/10:30pm 14.0 9.9 6.4 60 3.7 NW 17 22 9 12 1019.7 1019.7 0.0
13/10:00pm 14.0 9.7 6.8 62 3.5 NW 19 22 10 12 1019.8 1019.8 0.0
13/09:30pm 14.0 10.7 8.2 68 2.9 NW 15 19 8 10 1019.7 1019.7 0.0
13/09:00pm 14.0 11.2 8.6 70 2.7 NW 13 19 7 10 1019.7 1019.7 0.0
13/08:30pm 13.9 11.6 8.9 72 2.5 WNW 11 13 6 7 1019.7 1019.7 0.0
13/08:00pm 14.2 12.1 9.6 74 2.4 NW 11 17 6 9 1019.7 1019.7 0.0
13/07:30pm 14.7 12.4 8.9 68 3.0 NNW 11 15 6 8 1019.7 1019.7 0.0
13/07:00pm 15.1 12.2 8.1 63 3.5 N 13 17 7 9 1019.4 1019.4 0.0
13/06:30pm 15.1 12.1 7.6 61 3.7 N 13 17 7 9 1019.1 1019.1 0.0
13/06:00pm 15.1 12.1 7.6 61 3.7 NNE 13 17 7 9 1018.8 1018.8 0.0
13/05:30pm 15.2 11.4 7.7 61 3.7 NNE 17 20 9 11 1018.6 1018.6 0.0
13/05:00pm 15.3 10.9 7.6 60 3.8 NNE 20 24 11 13 1018.2 1018.2 0.0
13/04:30pm 15.4 11.6 7.4 59 4.0 NE 17 20 9 11 1018.1 1018.1 0.0
13/04:00pm 15.7 11.2 8.4 62 3.7 NE 22 26 12 14 1017.8 1017.8 0.0
13/03:30pm 16.1 11.9 8.3 60 4.0 NE 20 26 11 14 1017.7 1017.7 0.0
13/03:00pm 16.0 11.1 7.0 55 4.4 ENE 22 26 12 14 1017.6 1017.6 0.0
13/02:30pm 16.0 11.4 6.7 54 4.6 NE 20 24 11 13 1017.7 1017.7 0.0
13/02:00pm 16.3 11.9 6.4 52 4.8 NNE 19 22 10 12 1017.8 1017.8 0.0
13/01:30pm 16.2 11.7 6.9 54 4.6 NNE 20 26 11 14 1017.6 1017.6 0.0
13/01:00pm 16.7 12.5 5.6 48 5.3 NNE 17 20 9 11 1018.1 1018.1 0.0
13/12:30pm 17.1 13.5 5.1 45 5.8 NNW 13 19 7 10 1018.5 1018.5 0.0
13/12:00pm 16.1 12.7 4.2 45 5.5 NNW 11 17 6 9 1018.8 1018.8 0.0
13/11:30am 16.0 12.9 3.8 44 5.6 WNW 9 20 5 11 1019.2 1019.2 0.0
13/11:00am 16.1 14.2 5.1 48 5.2 NW 4 7 2 4 1019.7 1019.7 0.0
13/10:30am 16.1 13.9 3.2 42 5.9 SW 4 9 2 5 1019.9 1019.9 0.0
13/10:00am 16.0 13.7 4.7 47 5.3 WNW 6 7 3 4 1019.9 1019.9 0.0
13/09:30am 15.0 12.5 3.5 46 5.2 NW 6 9 3 5 1019.6 1019.6 0.0
13/09:00am 14.8 12.3 4.5 50 4.8 NW 7 11 4 6 1019.1 1019.1 0.0
13/08:30am 13.8 10.9 4.7 54 4.2 NW 9 13 5 7 1018.5 1018.5 0.0
13/08:00am 12.8 9.1 4.3 56 3.9 NW 13 17 7 9 1017.9 1017.9 0.0
13/07:30am 12.7 7.7 3.6 54 4.1 WNW 19 22 10 12 1017.6 1017.6 0.0
13/07:00am 11.8 7.6 3.8 58 3.6 WNW 15 20 8 11 1017.4 1017.4 0.0

Latest Capital City Observations: Canberra | Sydney | Melbourne | Brisbane | Adelaide | Perth | Hobart | Darwin

Other Formats:

Comma delimited format used in spreadsheet applications
http://www.bom.gov.au/fwo/IDN60903/IDN60903.94939.axf

JavaScript Object Notation format (JSON) in row-major order
http://www.bom.gov.au/fwo/IDN60903/IDN60903.94939.json